Albenga, Italy

8:35 AM CET on January 26, 2015 (GMT +0100)
Andora - colla micheri | Change Station
CLOSE
Current Station
Personal Weather Station
Location: Andora,
Elevation: 577 ft
Nearby Weather Stations

Elev 577 ft 43.97 °N, 8.15 °E | Updated 10 minutes ago

Clear
Clear
44.6 °F
Feels Like 39 °F
N
11.0
Wind Variable Wind from North
Gusts 11.0 mph

Today
High -- | Low -- °F
--% Chance of Precip.
Yesterday
High -- | Low -- °F
Precip. -- in
7:51 AM 5:28 PM
Waxing Crescent, 40% visible
Pressure 30.18 in
Visibility -9999.0 miles
Clouds
Windchill 39 °F
Dew Point 9 °F
Humidity 23%
Rainfall 0.00 in
Snow Depth Not available.
UV Not available.
Pollen Not available.
Air Quality Not available.
Flu Activity Not available.
METAR LIMU 260655Z 35019G35KT CAVOK 07/M17 Q1022 RMK FEW FEW070 QUK 3 QUL 1 E VIS MAR 50 KM VIS MIN 9999

More Conditions Fewer Conditions

Pressure 30.18 in
Visibility -9999.0 miles
Clouds
Windchill 39 °F
Dew Point 9 °F
Humidity 23%
Rainfall 0.00 in
Snow Depth Not available.
UV Not available.
Pollen Not available.
Air Quality Not available.
Flu Activity Not available.
METAR LIMU 260655Z 35019G35KT CAVOK 07/M17 Q1022 RMK FEW FEW070 QUK 3 QUL 1 E VIS MAR 50 KM VIS MIN 9999

More Conditions Fewer Conditions

10-Day Weather Forecast

Almanac

Astronomy

Jan. 26, 2015 Rise Set
Actual Time
Civil Twilight
Nautical Twilight
Astronomical Twilight
Moon
Length of Visible Light
Length of Day
Tomorrow will be .
, % of the Moon is Illuminated

Today's Extremes

Country Highs Country Lows

Community

WunderPhotos

Upload Photos

1,790,155 photos uploaded!

WunderBlogs® & News

Nearby

Air Quality

  Air Quality AQ Index Pollutant
Not available.

Snow Depth

Station Depth Elevation

Earthquake Activity

City Distance Mag. Time & Date
Minimum magnitude displayed is 2.5.

Coastal Water Temperatures

Place Temperature

Nearby Weather Stations